sensor_id;sensor_type;location;lat;lon;timestamp;temperature;humidity
792;DHT22;379;49.022;12.148;2023-10-09T00:01:02;10.70;99.90
792;DHT22;379;49.022;12.148;2023-10-09T00:03:32;10.70;99.90
792;DHT22;379;49.022;12.148;2023-10-09T00:06:02;10.70;99.90
792;DHT22;379;49.022;12.148;2023-10-09T00:08:29;10.80;99.90
792;DHT22;379;49.022;12.148;2023-10-09T00:10:59;10.80;99.90
792;DHT22;379;49.022;12.148;2023-10-09T00:13:39;10.80;99.90
792;DHT22;379;49.022;12.148;2023-10-09T00:16:15;10.70;99.90
792;DHT22;379;49.022;12.148;2023-10-09T00:18:50;10.70;99.90
792;DHT22;379;49.022;12.148;2023-10-09T00:21:19;10.80;99.90
792;DHT22;379;49.022;12.148;2023-10-09T00:23:47;10.70;99.90
792;DHT22;379;49.022;12.148;2023-10-09T00:26:19;10.60;99.90
792;DHT22;379;49.022;12.148;2023-10-09T00:28:47;10.60;99.90
792;DHT22;379;49.022;12.148;2023-10-09T00:31:17;10.60;99.90
792;DHT22;379;49.022;12.148;2023-10-09T00:33:54;10.60;99.90
792;DHT22;379;49.022;12.148;2023-10-09T00:36:21;10.60;99.90
792;DHT22;379;49.022;12.148;2023-10-09T00:38:52;10.60;99.90
792;DHT22;379;49.022;12.148;2023-10-09T00:41:19;10.70;99.90
792;DHT22;379;49.022;12.148;2023-10-09T00:43:50;10.70;99.90
792;DHT22;379;49.022;12.148;2023-10-09T00:46:20;10.80;99.90
792;DHT22;379;49.022;12.148;2023-10-09T00:48:53;10.80;99.90
792;DHT22;379;49.022;12.148;2023-10-09T00:51:22;10.90;99.90
792;DHT22;379;49.022;12.148;2023-10-09T00:53:51;11.00;99.90
792;DHT22;379;49.022;12.148;2023-10-09T00:56:19;11.00;99.90
792;DHT22;379;49.022;12.148;2023-10-09T00:58:56;11.00;99.90
792;DHT22;379;49.022;12.148;2023-10-09T01:01:26;11.00;99.90
792;DHT22;379;49.022;12.148;2023-10-09T01:04:01;11.10;99.90
792;DHT22;379;49.022;12.148;2023-10-09T01:06:38;11.10;99.90
792;DHT22;379;49.022;12.148;2023-10-09T01:09:10;11.10;99.90
792;DHT22;379;49.022;12.148;2023-10-09T01:11:39;11.10;99.90
792;DHT22;379;49.022;12.148;2023-10-09T01:14:15;11.10;99.90
792;DHT22;379;49.022;12.148;2023-10-09T01:16:42;11.10;99.90
792;DHT22;379;49.022;12.148;2023-10-09T01:19:11;11.10;99.90
792;DHT22;379;49.022;12.148;2023-10-09T01:21:46;11.10;99.90
792;DHT22;379;49.022;12.148;2023-10-09T01:24:15;11.10;99.90
792;DHT22;379;49.022;12.148;2023-10-09T01:26:46;11.10;99.90
792;DHT22;379;49.022;12.148;2023-10-09T01:29:14;11.10;99.90
792;DHT22;379;49.022;12.148;2023-10-09T01:31:42;11.20;99.90
792;DHT22;379;49.022;12.148;2023-10-09T01:34:18;11.10;99.90
792;DHT22;379;49.022;12.148;2023-10-09T01:36:50;11.10;99.90
792;DHT22;379;49.022;12.148;2023-10-09T01:39:21;11.10;99.90
792;DHT22;379;49.022;12.148;2023-10-09T01:41:52;11.10;99.90
792;DHT22;379;49.022;12.148;2023-10-09T01:44:24;11.20;99.90
792;DHT22;379;49.022;12.148;2023-10-09T01:46:52;11.20;99.90
792;DHT22;379;49.022;12.148;2023-10-09T01:49:21;11.30;99.90
792;DHT22;379;49.022;12.148;2023-10-09T01:51:55;11.30;99.90
792;DHT22;379;49.022;12.148;2023-10-09T01:54:26;11.20;99.90
792;DHT22;379;49.022;12.148;2023-10-09T01:57:02;11.30;99.90
792;DHT22;379;49.022;12.148;2023-10-09T01:59:37;11.30;99.90
792;DHT22;379;49.022;12.148;2023-10-09T02:02:09;11.30;99.90
792;DHT22;379;49.022;12.148;2023-10-09T02:04:46;11.20;99.90
792;DHT22;379;49.022;12.148;2023-10-09T02:07:13;11.30;99.90
792;DHT22;379;49.022;12.148;2023-10-09T02:09:49;11.30;99.90
792;DHT22;379;49.022;12.148;2023-10-09T02:12:15;11.30;99.90
792;DHT22;379;49.022;12.148;2023-10-09T02:14:43;11.30;99.90
792;DHT22;379;49.022;12.148;2023-10-09T02:17:09;11.30;99.90
792;DHT22;379;49.022;12.148;2023-10-09T02:19:43;11.30;99.90
792;DHT22;379;49.022;12.148;2023-10-09T02:22:14;11.30;99.90
792;DHT22;379;49.022;12.148;2023-10-09T02:24:42;11.30;99.90
792;DHT22;379;49.022;12.148;2023-10-09T02:27:17;11.40;99.90
792;DHT22;379;49.022;12.148;2023-10-09T02:30:06;11.40;99.90
792;DHT22;379;49.022;12.148;2023-10-09T02:32:43;11.40;99.90
792;DHT22;379;49.022;12.148;2023-10-09T02:35:10;11.50;99.90
792;DHT22;379;49.022;12.148;2023-10-09T02:37:46;11.50;99.90
792;DHT22;379;49.022;12.148;2023-10-09T02:40:14;11.50;99.90
792;DHT22;379;49.022;12.148;2023-10-09T02:42:50;11.50;99.90
792;DHT22;379;49.022;12.148;2023-10-09T02:45:17;11.60;99.90
792;DHT22;379;49.022;12.148;2023-10-09T02:47:45;11.60;99.90
792;DHT22;379;49.022;12.148;2023-10-09T02:50:14;11.70;99.90
792;DHT22;379;49.022;12.148;2023-10-09T02:52:47;11.70;99.90
792;DHT22;379;49.022;12.148;2023-10-09T02:55:18;11.70;99.90
792;DHT22;379;49.022;12.148;2023-10-09T02:57:52;11.70;99.90
792;DHT22;379;49.022;12.148;2023-10-09T03:00:30;11.70;99.90
792;DHT22;379;49.022;12.148;2023-10-09T03:02:58;11.70;99.90
792;DHT22;379;49.022;12.148;2023-10-09T03:05:25;11.70;99.90
792;DHT22;379;49.022;12.148;2023-10-09T03:07:54;11.80;99.90
792;DHT22;379;49.022;12.148;2023-10-09T03:10:22;11.70;99.90
792;DHT22;379;49.022;12.148;2023-10-09T03:12:49;11.80;99.90
792;DHT22;379;49.022;12.148;2023-10-09T03:15:19;11.80;99.90
792;DHT22;379;49.022;12.148;2023-10-09T03:17:46;11.80;99.90
792;DHT22;379;49.022;12.148;2023-10-09T03:20:14;11.80;99.90
792;DHT22;379;49.022;12.148;2023-10-09T03:22:43;11.80;99.90
792;DHT22;379;49.022;12.148;2023-10-09T03:25:10;11.80;99.90
792;DHT22;379;49.022;12.148;2023-10-09T03:27:43;11.80;99.90
792;DHT22;379;49.022;12.148;2023-10-09T03:30:12;11.80;99.90
792;DHT22;379;49.022;12.148;2023-10-09T03:32:44;11.90;99.90
792;DHT22;379;49.022;12.148;2023-10-09T03:35:16;11.90;99.90
792;DHT22;379;49.022;12.148;2023-10-09T03:37:51;11.90;99.90
792;DHT22;379;49.022;12.148;2023-10-09T03:40:18;11.90;99.90
792;DHT22;379;49.022;12.148;2023-10-09T03:42:45;12.00;99.90
792;DHT22;379;49.022;12.148;2023-10-09T03:45:13;12.00;99.90
792;DHT22;379;49.022;12.148;2023-10-09T03:47:52;12.00;99.90
792;DHT22;379;49.022;12.148;2023-10-09T03:50:26;12.00;99.90
792;DHT22;379;49.022;12.148;2023-10-09T03:53:04;12.00;99.90
792;DHT22;379;49.022;12.148;2023-10-09T03:55:34;12.00;99.90
792;DHT22;379;49.022;12.148;2023-10-09T03:58:03;12.00;99.90
792;DHT22;379;49.022;12.148;2023-10-09T04:00:31;12.00;99.90
792;DHT22;379;49.022;12.148;2023-10-09T04:03:07;12.10;99.90
792;DHT22;379;49.022;12.148;2023-10-09T04:05:37;12.00;99.90
792;DHT22;379;49.022;12.148;2023-10-09T04:08:06;12.00;99.90
792;DHT22;379;49.022;12.148;2023-10-09T04:10:41;12.10;99.90
792;DHT22;379;49.022;12.148;2023-10-09T04:13:17;12.00;99.90
792;DHT22;379;49.022;12.148;2023-10-09T04:15:49;12.00;99.90
792;DHT22;379;49.022;12.148;2023-10-09T04:18:19;12.00;99.90
792;DHT22;379;49.022;12.148;2023-10-09T04:20:54;11.90;99.90
792;DHT22;379;49.022;12.148;2023-10-09T04:23:39;11.90;99.90
792;DHT22;379;49.022;12.148;2023-10-09T04:26:19;11.90;99.90
792;DHT22;379;49.022;12.148;2023-10-09T04:28:46;12.00;99.90
792;DHT22;379;49.022;12.148;2023-10-09T04:31:17;11.90;99.90
792;DHT22;379;49.022;12.148;2023-10-09T04:33:46;12.00;99.90
792;DHT22;379;49.022;12.148;2023-10-09T04:36:19;11.90;99.90
792;DHT22;379;49.022;12.148;2023-10-09T04:38:54;11.90;99.90
792;DHT22;379;49.022;12.148;2023-10-09T04:41:41;11.90;99.90
792;DHT22;379;49.022;12.148;2023-10-09T04:44:17;11.90;99.90
792;DHT22;379;49.022;12.148;2023-10-09T04:46:49;11.80;99.90
792;DHT22;379;49.022;12.148;2023-10-09T04:49:31;11.80;99.90
792;DHT22;379;49.022;12.148;2023-10-09T04:52:15;11.80;99.90
792;DHT22;379;49.022;12.148;2023-10-09T04:54:56;11.70;99.90
792;DHT22;379;49.022;12.148;2023-10-09T04:57:42;11.70;99.90
792;DHT22;379;49.022;12.148;2023-10-09T05:00:26;11.60;99.90
792;DHT22;379;49.022;12.148;2023-10-09T05:03:12;11.60;99.90
792;DHT22;379;49.022;12.148;2023-10-09T05:05:52;11.60;99.90
792;DHT22;379;49.022;12.148;2023-10-09T05:08:26;11.60;99.90
792;DHT22;379;49.022;12.148;2023-10-09T05:10:55;11.60;99.90
792;DHT22;379;49.022;12.148;2023-10-09T05:13:41;11.50;99.90
792;DHT22;379;49.022;12.148;2023-10-09T05:16:10;11.50;99.90
792;DHT22;379;49.022;12.148;2023-10-09T05:18:44;11.50;99.90
792;DHT22;379;49.022;12.148;2023-10-09T05:21:12;11.50;99.90
792;DHT22;379;49.022;12.148;2023-10-09T05:24:02;11.50;99.90
792;DHT22;379;49.022;12.148;2023-10-09T05:26:45;11.50;99.90
792;DHT22;379;49.022;12.148;2023-10-09T05:29:18;11.40;99.90
792;DHT22;379;49.022;12.148;2023-10-09T05:31:45;11.30;99.90
792;DHT22;379;49.022;12.148;2023-10-09T05:34:21;11.30;99.90
792;DHT22;379;49.022;12.148;2023-10-09T05:36:50;11.30;99.90
792;DHT22;379;49.022;12.148;2023-10-09T05:39:15;11.40;99.90
792;DHT22;379;49.022;12.148;2023-10-09T05:41:48;11.30;99.90
792;DHT22;379;49.022;12.148;2023-10-09T05:44:18;11.40;99.90
792;DHT22;379;49.022;12.148;2023-10-09T05:47:03;11.40;99.90
792;DHT22;379;49.022;12.148;2023-10-09T05:49:47;11.50;99.90
792;DHT22;379;49.022;12.148;2023-10-09T05:52:22;11.50;99.90
792;DHT22;379;49.022;12.148;2023-10-09T05:55:14;11.50;99.90
792;DHT22;379;49.022;12.148;2023-10-09T05:58:07;11.60;99.90
792;DHT22;379;49.022;12.148;2023-10-09T06:01:00;11.60;99.90
792;DHT22;379;49.022;12.148;2023-10-09T06:03:58;11.70;99.90
792;DHT22;379;49.022;12.148;2023-10-09T06:06:40;11.80;99.90
792;DHT22;379;49.022;12.148;2023-10-09T06:09:12;11.80;99.90
792;DHT22;379;49.022;12.148;2023-10-09T06:11:56;11.90;99.90
792;DHT22;379;49.022;12.148;2023-10-09T06:14:44;12.00;99.90
792;DHT22;379;49.022;12.148;2023-10-09T06:17:24;12.10;99.90
792;DHT22;379;49.022;12.148;2023-10-09T06:19:53;12.10;99.90
792;DHT22;379;49.022;12.148;2023-10-09T06:22:24;12.20;99.90
792;DHT22;379;49.022;12.148;2023-10-09T06:25:10;12.20;99.90
792;DHT22;379;49.022;12.148;2023-10-09T06:27:38;12.20;99.90
792;DHT22;379;49.022;12.148;2023-10-09T06:30:22;12.20;99.90
792;DHT22;379;49.022;12.148;2023-10-09T06:32:52;12.30;99.90
792;DHT22;379;49.022;12.148;2023-10-09T06:35:33;12.30;99.90
792;DHT22;379;49.022;12.148;2023-10-09T06:38:02;12.40;99.90
792;DHT22;379;49.022;12.148;2023-10-09T06:40:49;12.50;99.90
792;DHT22;379;49.022;12.148;2023-10-09T06:43:34;12.70;99.90
792;DHT22;379;49.022;12.148;2023-10-09T06:46:15;12.80;99.90
792;DHT22;379;49.022;12.148;2023-10-09T06:48:59;13.00;99.90
792;DHT22;379;49.022;12.148;2023-10-09T06:51:46;13.30;99.90
792;DHT22;379;49.022;12.148;2023-10-09T06:54:13;13.40;99.90
792;DHT22;379;49.022;12.148;2023-10-09T06:56:42;13.60;99.90
792;DHT22;379;49.022;12.148;2023-10-09T06:59:26;13.90;99.90
792;DHT22;379;49.022;12.148;2023-10-09T07:02:07;14.10;99.90
792;DHT22;379;49.022;12.148;2023-10-09T07:04:51;14.30;99.90
792;DHT22;379;49.022;12.148;2023-10-09T07:07:21;14.50;99.90
792;DHT22;379;49.022;12.148;2023-10-09T07:09:51;14.60;99.90
792;DHT22;379;49.022;12.148;2023-10-09T07:12:36;14.70;99.90
792;DHT22;379;49.022;12.148;2023-10-09T07:15:09;14.70;99.90
792;DHT22;379;49.022;12.148;2023-10-09T07:18:03;14.70;99.90
792;DHT22;379;49.022;12.148;2023-10-09T07:20:44;14.70;99.90
792;DHT22;379;49.022;12.148;2023-10-09T07:23:25;14.80;99.90
792;DHT22;379;49.022;12.148;2023-10-09T07:26:01;14.90;99.90
792;DHT22;379;49.022;12.148;2023-10-09T07:28:46;14.90;99.90
792;DHT22;379;49.022;12.148;2023-10-09T07:31:18;15.00;99.90
792;DHT22;379;49.022;12.148;2023-10-09T07:33:53;15.10;99.90
792;DHT22;379;49.022;12.148;2023-10-09T07:36:32;15.10;99.90
792;DHT22;379;49.022;12.148;2023-10-09T07:39:03;15.10;99.90
792;DHT22;379;49.022;12.148;2023-10-09T07:41:38;15.20;99.90
792;DHT22;379;49.022;12.148;2023-10-09T07:44:11;15.30;99.90
792;DHT22;379;49.022;12.148;2023-10-09T07:47:01;15.40;99.90
792;DHT22;379;49.022;12.148;2023-10-09T07:49:43;15.50;99.90
792;DHT22;379;49.022;12.148;2023-10-09T07:52:14;15.60;99.90
792;DHT22;379;49.022;12.148;2023-10-09T07:54:41;15.60;99.90
792;DHT22;379;49.022;12.148;2023-10-09T07:57:16;15.70;99.90
792;DHT22;379;49.022;12.148;2023-10-09T07:59:44;15.80;99.90
792;DHT22;379;49.022;12.148;2023-10-09T08:02:27;15.80;99.90
792;DHT22;379;49.022;12.148;2023-10-09T08:04:59;16.00;99.90
792;DHT22;379;49.022;12.148;2023-10-09T08:07:30;16.10;99.90
792;DHT22;379;49.022;12.148;2023-10-09T08:10:03;16.20;99.90
792;DHT22;379;49.022;12.148;2023-10-09T08:12:48;16.40;99.90
792;DHT22;379;49.022;12.148;2023-10-09T08:15:25;16.40;99.90
792;DHT22;379;49.022;12.148;2023-10-09T08:18:00;16.60;99.90
792;DHT22;379;49.022;12.148;2023-10-09T08:20:36;16.60;99.90
792;DHT22;379;49.022;12.148;2023-10-09T08:23:16;16.80;99.90
792;DHT22;379;49.022;12.148;2023-10-09T08:25:59;16.90;99.90
792;DHT22;379;49.022;12.148;2023-10-09T08:28:38;17.00;99.90
792;DHT22;379;49.022;12.148;2023-10-09T08:31:11;17.00;99.90
792;DHT22;379;49.022;12.148;2023-10-09T08:33:59;17.00;99.90
792;DHT22;379;49.022;12.148;2023-10-09T08:36:27;17.00;99.90
792;DHT22;379;49.022;12.148;2023-10-09T08:39:01;17.10;99.90
792;DHT22;379;49.022;12.148;2023-10-09T08:41:42;17.20;99.90
792;DHT22;379;49.022;12.148;2023-10-09T08:44:12;17.30;99.90
792;DHT22;379;49.022;12.148;2023-10-09T08:46:42;17.50;99.90
792;DHT22;379;49.022;12.148;2023-10-09T08:49:10;17.50;99.90
792;DHT22;379;49.022;12.148;2023-10-09T08:51:37;17.30;99.90
792;DHT22;379;49.022;12.148;2023-10-09T08:54:07;17.30;99.90
792;DHT22;379;49.022;12.148;2023-10-09T08:56:37;17.40;99.90
792;DHT22;379;49.022;12.148;2023-10-09T08:59:05;17.60;99.90
792;DHT22;379;49.022;12.148;2023-10-09T09:01:32;17.80;99.90
792;DHT22;379;49.022;12.148;2023-10-09T09:04:01;18.00;99.90
792;DHT22;379;49.022;12.148;2023-10-09T09:06:36;18.30;99.90
792;DHT22;379;49.022;12.148;2023-10-09T09:09:10;18.40;99.90
792;DHT22;379;49.022;12.148;2023-10-09T09:11:41;18.50;99.90
792;DHT22;379;49.022;12.148;2023-10-09T09:14:14;18.70;99.90
792;DHT22;379;49.022;12.148;2023-10-09T09:16:45;18.90;99.90
792;DHT22;379;49.022;12.148;2023-10-09T09:19:15;19.00;99.90
792;DHT22;379;49.022;12.148;2023-10-09T09:21:49;19.20;99.90
792;DHT22;379;49.022;12.148;2023-10-09T09:24:20;19.30;99.90
792;DHT22;379;49.022;12.148;2023-10-09T09:27:00;19.40;99.90
792;DHT22;379;49.022;12.148;2023-10-09T09:29:39;19.40;99.90
792;DHT22;379;49.022;12.148;2023-10-09T09:32:07;19.50;99.90
792;DHT22;379;49.022;12.148;2023-10-09T09:34:48;19.50;99.90
792;DHT22;379;49.022;12.148;2023-10-09T09:37:19;19.50;99.90
792;DHT22;379;49.022;12.148;2023-10-09T09:39:46;19.50;99.90
792;DHT22;379;49.022;12.148;2023-10-09T09:42:18;19.50;99.90
792;DHT22;379;49.022;12.148;2023-10-09T09:44:51;19.50;99.90
792;DHT22;379;49.022;12.148;2023-10-09T09:47:18;19.50;99.90
792;DHT22;379;49.022;12.148;2023-10-09T09:49:54;19.60;99.90
792;DHT22;379;49.022;12.148;2023-10-09T09:52:28;19.70;99.90
792;DHT22;379;49.022;12.148;2023-10-09T09:55:04;19.70;99.90
792;DHT22;379;49.022;12.148;2023-10-09T09:57:33;19.80;99.90
792;DHT22;379;49.022;12.148;2023-10-09T10:00:06;20.00;99.90
792;DHT22;379;49.022;12.148;2023-10-09T10:02:54;20.20;99.90
792;DHT22;379;49.022;12.148;2023-10-09T10:05:26;20.30;99.90
792;DHT22;379;49.022;12.148;2023-10-09T10:07:56;20.50;99.90
792;DHT22;379;49.022;12.148;2023-10-09T10:10:37;20.70;99.90
792;DHT22;379;49.022;12.148;2023-10-09T10:13:13;21.00;99.90
792;DHT22;379;49.022;12.148;2023-10-09T10:15:58;21.30;99.90
792;DHT22;379;49.022;12.148;2023-10-09T10:18:30;21.50;99.90
792;DHT22;379;49.022;12.148;2023-10-09T10:21:12;21.50;99.90
792;DHT22;379;49.022;12.148;2023-10-09T10:23:42;21.40;99.90
792;DHT22;379;49.022;12.148;2023-10-09T10:26:19;21.20;99.90
792;DHT22;379;49.022;12.148;2023-10-09T10:29:15;20.80;99.90
792;DHT22;379;49.022;12.148;2023-10-09T10:31:55;20.40;99.90
792;DHT22;379;49.022;12.148;2023-10-09T10:34:23;20.10;99.90
792;DHT22;379;49.022;12.148;2023-10-09T10:36:52;19.70;99.90
792;DHT22;379;49.022;12.148;2023-10-09T10:39:24;19.30;99.90
792;DHT22;379;49.022;12.148;2023-10-09T10:42:08;19.00;99.90
792;DHT22;379;49.022;12.148;2023-10-09T10:44:41;18.70;99.90
792;DHT22;379;49.022;12.148;2023-10-09T10:47:12;18.50;99.90
792;DHT22;379;49.022;12.148;2023-10-09T10:49:51;18.20;99.90
792;DHT22;379;49.022;12.148;2023-10-09T10:52:25;17.80;99.90
792;DHT22;379;49.022;12.148;2023-10-09T10:55:09;17.60;99.90
792;DHT22;379;49.022;12.148;2023-10-09T10:57:44;17.40;99.90
792;DHT22;379;49.022;12.148;2023-10-09T11:00:20;17.40;99.90
792;DHT22;379;49.022;12.148;2023-10-09T11:03:04;17.40;99.90
792;DHT22;379;49.022;12.148;2023-10-09T11:05:42;17.50;99.90
792;DHT22;379;49.022;12.148;2023-10-09T11:08:17;17.50;99.90
792;DHT22;379;49.022;12.148;2023-10-09T11:10:49;17.60;99.90
792;DHT22;379;49.022;12.148;2023-10-09T11:13:23;17.70;99.90
792;DHT22;379;49.022;12.148;2023-10-09T11:15:56;17.80;99.90
792;DHT22;379;49.022;12.148;2023-10-09T11:18:41;17.90;99.90
792;DHT22;379;49.022;12.148;2023-10-09T11:21:13;18.10;99.90
792;DHT22;379;49.022;12.148;2023-10-09T11:23:58;18.20;99.90
792;DHT22;379;49.022;12.148;2023-10-09T11:26:25;18.50;99.90
792;DHT22;379;49.022;12.148;2023-10-09T11:29:09;18.60;99.90
792;DHT22;379;49.022;12.148;2023-10-09T11:32:00;18.70;99.90
792;DHT22;379;49.022;12.148;2023-10-09T11:34:28;18.80;99.90
792;DHT22;379;49.022;12.148;2023-10-09T11:36:58;18.90;99.90
792;DHT22;379;49.022;12.148;2023-10-09T11:39:29;19.00;99.90
792;DHT22;379;49.022;12.148;2023-10-09T11:42:05;19.10;99.90
792;DHT22;379;49.022;12.148;2023-10-09T11:44:37;19.10;99.90
792;DHT22;379;49.022;12.148;2023-10-09T11:47:05;19.10;99.90
792;DHT22;379;49.022;12.148;2023-10-09T11:49:58;19.00;99.90
792;DHT22;379;49.022;12.148;2023-10-09T11:52:56;18.90;99.90
792;DHT22;379;49.022;12.148;2023-10-09T11:55:36;18.70;99.90
792;DHT22;379;49.022;12.148;2023-10-09T11:58:02;18.40;99.90
792;DHT22;379;49.022;12.148;2023-10-09T12:00:30;18.20;99.90
792;DHT22;379;49.022;12.148;2023-10-09T12:03:08;18.00;99.90
792;DHT22;379;49.022;12.148;2023-10-09T12:05:34;17.90;99.90
792;DHT22;379;49.022;12.148;2023-10-09T12:08:02;17.90;99.90
792;DHT22;379;49.022;12.148;2023-10-09T12:10:34;17.90;99.90
792;DHT22;379;49.022;12.148;2023-10-09T12:13:06;18.00;99.90
792;DHT22;379;49.022;12.148;2023-10-09T12:15:33;18.00;99.90
792;DHT22;379;49.022;12.148;2023-10-09T12:18:04;18.10;99.90
792;DHT22;379;49.022;12.148;2023-10-09T12:20:34;18.20;99.90
792;DHT22;379;49.022;12.148;2023-10-09T12:23:03;18.30;99.90
792;DHT22;379;49.022;12.148;2023-10-09T12:25:32;18.30;99.90
792;DHT22;379;49.022;12.148;2023-10-09T12:28:00;18.20;99.90
792;DHT22;379;49.022;12.148;2023-10-09T12:30:29;18.00;99.90
792;DHT22;379;49.022;12.148;2023-10-09T12:32:57;18.00;99.90
792;DHT22;379;49.022;12.148;2023-10-09T12:35:24;17.80;99.90
792;DHT22;379;49.022;12.148;2023-10-09T12:37:51;17.80;99.90
792;DHT22;379;49.022;12.148;2023-10-09T12:40:20;17.80;99.90
792;DHT22;379;49.022;12.148;2023-10-09T12:42:51;17.90;99.90
792;DHT22;379;49.022;12.148;2023-10-09T12:45:21;18.10;99.90
792;DHT22;379;49.022;12.148;2023-10-09T12:47:53;18.30;99.90
792;DHT22;379;49.022;12.148;2023-10-09T12:50:24;18.50;99.90
792;DHT22;379;49.022;12.148;2023-10-09T12:52:55;18.50;99.90
792;DHT22;379;49.022;12.148;2023-10-09T12:55:22;18.50;99.90
792;DHT22;379;49.022;12.148;2023-10-09T12:57:57;18.60;99.90
792;DHT22;379;49.022;12.148;2023-10-09T13:00:26;18.40;99.90
792;DHT22;379;49.022;12.148;2023-10-09T13:02:54;18.20;99.90
792;DHT22;379;49.022;12.148;2023-10-09T13:05:21;18.00;99.90
792;DHT22;379;49.022;12.148;2023-10-09T13:07:52;17.80;99.90
792;DHT22;379;49.022;12.148;2023-10-09T13:10:21;17.60;99.90
792;DHT22;379;49.022;12.148;2023-10-09T13:12:50;17.40;99.90
792;DHT22;379;49.022;12.148;2023-10-09T13:15:21;17.30;99.90
792;DHT22;379;49.022;12.148;2023-10-09T13:17:48;17.30;99.90
792;DHT22;379;49.022;12.148;2023-10-09T13:20:16;17.40;99.90
792;DHT22;379;49.022;12.148;2023-10-09T13:22:43;17.50;99.90
792;DHT22;379;49.022;12.148;2023-10-09T13:25:10;17.60;99.90
792;DHT22;379;49.022;12.148;2023-10-09T13:27:42;17.60;99.90
792;DHT22;379;49.022;12.148;2023-10-09T13:30:16;17.70;99.90
792;DHT22;379;49.022;12.148;2023-10-09T13:32:47;17.70;99.90
792;DHT22;379;49.022;12.148;2023-10-09T13:35:17;17.80;99.90
792;DHT22;379;49.022;12.148;2023-10-09T13:37:44;18.00;99.90
792;DHT22;379;49.022;12.148;2023-10-09T13:40:20;18.10;99.90
792;DHT22;379;49.022;12.148;2023-10-09T13:42:55;18.30;99.90
792;DHT22;379;49.022;12.148;2023-10-09T13:45:25;18.50;99.90
792;DHT22;379;49.022;12.148;2023-10-09T13:47:54;18.60;99.90
792;DHT22;379;49.022;12.148;2023-10-09T13:50:23;18.70;99.90
792;DHT22;379;49.022;12.148;2023-10-09T13:52:54;18.80;99.90
792;DHT22;379;49.022;12.148;2023-10-09T13:55:21;18.80;99.90
792;DHT22;379;49.022;12.148;2023-10-09T13:57:49;18.80;99.90
792;DHT22;379;49.022;12.148;2023-10-09T14:00:16;18.80;99.90
792;DHT22;379;49.022;12.148;2023-10-09T14:02:58;18.80;99.90
792;DHT22;379;49.022;12.148;2023-10-09T14:05:28;18.70;99.90
792;DHT22;379;49.022;12.148;2023-10-09T14:07:54;18.70;99.90
792;DHT22;379;49.022;12.148;2023-10-09T14:10:25;18.60;99.90
792;DHT22;379;49.022;12.148;2023-10-09T14:12:55;18.50;99.90
792;DHT22;379;49.022;12.148;2023-10-09T14:15:22;18.40;99.90
792;DHT22;379;49.022;12.148;2023-10-09T14:17:49;18.40;99.90
792;DHT22;379;49.022;12.148;2023-10-09T14:20:21;18.30;99.90
792;DHT22;379;49.022;12.148;2023-10-09T14:22:58;18.40;99.90
792;DHT22;379;49.022;12.148;2023-10-09T14:25:32;18.40;99.90
792;DHT22;379;49.022;12.148;2023-10-09T14:27:58;18.50;99.90
792;DHT22;379;49.022;12.148;2023-10-09T14:30:25;18.50;99.90
792;DHT22;379;49.022;12.148;2023-10-09T14:32:58;18.70;99.90
792;DHT22;379;49.022;12.148;2023-10-09T14:35:28;18.70;99.90
792;DHT22;379;49.022;12.148;2023-10-09T14:37:57;18.80;99.90
792;DHT22;379;49.022;12.148;2023-10-09T14:40:26;18.80;99.90
792;DHT22;379;49.022;12.148;2023-10-09T14:42:57;18.80;99.90
792;DHT22;379;49.022;12.148;2023-10-09T14:45:24;18.80;99.90
792;DHT22;379;49.022;12.148;2023-10-09T14:47:52;18.80;99.90
792;DHT22;379;49.022;12.148;2023-10-09T14:50:20;18.70;99.90
792;DHT22;379;49.022;12.148;2023-10-09T14:52:48;18.70;99.90
792;DHT22;379;49.022;12.148;2023-10-09T14:55:17;18.70;99.90
792;DHT22;379;49.022;12.148;2023-10-09T14:57:47;18.70;99.90
792;DHT22;379;49.022;12.148;2023-10-09T15:00:16;18.70;99.90
792;DHT22;379;49.022;12.148;2023-10-09T15:02:48;18.70;99.90
792;DHT22;379;49.022;12.148;2023-10-09T15:05:16;18.70;99.90
792;DHT22;379;49.022;12.148;2023-10-09T15:07:42;18.70;99.90
792;DHT22;379;49.022;12.148;2023-10-09T15:10:11;18.70;99.90
792;DHT22;379;49.022;12.148;2023-10-09T15:12:42;18.70;99.90
792;DHT22;379;49.022;12.148;2023-10-09T15:15:12;18.60;99.90
792;DHT22;379;49.022;12.148;2023-10-09T15:17:40;18.60;99.90
792;DHT22;379;49.022;12.148;2023-10-09T15:20:11;18.60;99.90
792;DHT22;379;49.022;12.148;2023-10-09T15:22:40;18.60;99.90
792;DHT22;379;49.022;12.148;2023-10-09T15:25:07;18.50;99.90
792;DHT22;379;49.022;12.148;2023-10-09T15:27:34;18.60;99.90
792;DHT22;379;49.022;12.148;2023-10-09T15:30:07;18.50;99.90
792;DHT22;379;49.022;12.148;2023-10-09T15:32:39;18.50;99.90
792;DHT22;379;49.022;12.148;2023-10-09T15:35:07;18.50;99.90
792;DHT22;379;49.022;12.148;2023-10-09T15:37:35;18.40;99.90
792;DHT22;379;49.022;12.148;2023-10-09T15:40:02;18.40;99.90
792;DHT22;379;49.022;12.148;2023-10-09T15:42:39;18.50;99.90
792;DHT22;379;49.022;12.148;2023-10-09T15:45:08;18.50;99.90
792;DHT22;379;49.022;12.148;2023-10-09T15:47:35;18.50;99.90
792;DHT22;379;49.022;12.148;2023-10-09T15:50:03;18.50;99.90
792;DHT22;379;49.022;12.148;2023-10-09T15:52:30;18.50;99.90
792;DHT22;379;49.022;12.148;2023-10-09T15:54:57;18.50;99.90
792;DHT22;379;49.022;12.148;2023-10-09T15:57:23;18.50;99.90
792;DHT22;379;49.022;12.148;2023-10-09T15:59:50;18.40;99.90
792;DHT22;379;49.022;12.148;2023-10-09T16:02:18;18.40;99.90
792;DHT22;379;49.022;12.148;2023-10-09T16:04:45;18.40;99.90
792;DHT22;379;49.022;12.148;2023-10-09T16:07:12;18.40;99.90
792;DHT22;379;49.022;12.148;2023-10-09T16:09:40;18.30;99.90
792;DHT22;379;49.022;12.148;2023-10-09T16:12:07;18.20;99.90
792;DHT22;379;49.022;12.148;2023-10-09T16:14:35;18.10;99.90
792;DHT22;379;49.022;12.148;2023-10-09T16:17:02;18.00;99.90
792;DHT22;379;49.022;12.148;2023-10-09T16:19:33;18.00;99.90
792;DHT22;379;49.022;12.148;2023-10-09T16:22:02;17.90;99.90
792;DHT22;379;49.022;12.148;2023-10-09T16:24:29;17.80;99.90
792;DHT22;379;49.022;12.148;2023-10-09T16:26:58;17.70;99.90
792;DHT22;379;49.022;12.148;2023-10-09T16:29:25;17.70;99.90
792;DHT22;379;49.022;12.148;2023-10-09T16:31:53;17.60;99.90
792;DHT22;379;49.022;12.148;2023-10-09T16:34:21;17.40;99.90
792;DHT22;379;49.022;12.148;2023-10-09T16:36:52;17.20;99.90
792;DHT22;379;49.022;12.148;2023-10-09T16:39:20;17.10;99.90
792;DHT22;379;49.022;12.148;2023-10-09T16:41:48;16.90;99.90
792;DHT22;379;49.022;12.148;2023-10-09T16:44:15;16.80;99.90
792;DHT22;379;49.022;12.148;2023-10-09T16:46:43;16.70;99.90
792;DHT22;379;49.022;12.148;2023-10-09T16:49:11;16.60;99.90
792;DHT22;379;49.022;12.148;2023-10-09T16:51:39;16.60;99.90
792;DHT22;379;49.022;12.148;2023-10-09T16:54:09;16.60;99.90